sensor_id;sensor_type;location;lat;lon;timestamp;pressure;altitude;pressure_sealevel;temperature;humidity
70141;BME280;57508;43.086;0.136;2022-10-22T06:37:57;95668.84;;;20.55;42.12
70141;BME280;57508;43.086;0.136;2022-10-22T06:40:22;95669.66;;;19.68;44.10
70141;BME280;57508;43.086;0.136;2022-10-22T06:42:48;95665.78;;;19.65;43.97
70141;BME280;57508;43.086;0.136;2022-10-22T06:45:14;95667.66;;;20.53;42.79
70141;BME280;57508;43.086;0.136;2022-10-22T06:47:39;95678.84;;;20.94;41.35
70141;BME280;57508;43.086;0.136;2022-10-22T06:50:05;95680.53;;;21.03;41.22
70141;BME280;57508;43.086;0.136;2022-10-22T06:52:30;95684.56;;;21.36;40.56
70141;BME280;57508;43.086;0.136;2022-10-22T06:54:56;95684.56;;;21.13;40.81
70141;BME280;57508;43.086;0.136;2022-10-22T06:57:21;95692.53;;;21.29;40.36
70141;BME280;57508;43.086;0.136;2022-10-22T06:59:47;95689.47;;;21.30;41.11
70141;BME280;57508;43.086;0.136;2022-10-22T07:02:12;95688.22;;;20.45;42.22
70141;BME280;57508;43.086;0.136;2022-10-22T07:04:37;95697.97;;;20.17;42.97
70141;BME280;57508;43.086;0.136;2022-10-22T07:07:03;95692.84;;;21.04;42.02
70141;BME280;57508;43.086;0.136;2022-10-22T07:09:28;95686.31;;;20.46;42.68
70141;BME280;57508;43.086;0.136;2022-10-22T07:11:54;95683.69;;;21.52;40.83
70141;BME280;57508;43.086;0.136;2022-10-22T07:14:19;95689.13;;;22.06;40.46
70141;BME280;57508;43.086;0.136;2022-10-22T07:16:44;95691.19;;;21.42;40.55
70141;BME280;57508;43.086;0.136;2022-10-22T07:19:11;95691.41;;;20.71;42.21
70141;BME280;57508;43.086;0.136;2022-10-22T07:21:36;95694.59;;;20.76;42.08
70141;BME280;57508;43.086;0.136;2022-10-22T07:24:02;95695.84;;;22.46;38.94
70141;BME280;57508;43.086;0.136;2022-10-22T07:26:28;95705.00;;;23.41;36.52
70141;BME280;57508;43.086;0.136;2022-10-22T07:29:00;95707.34;;;23.88;36.29
70141;BME280;57508;43.086;0.136;2022-10-22T07:31:26;95707.16;;;24.93;35.16
70141;BME280;57508;43.086;0.136;2022-10-22T07:33:52;95708.09;;;25.88;33.37
70141;BME280;57508;43.086;0.136;2022-10-22T07:36:17;95716.94;;;26.47;32.17
70141;BME280;57508;43.086;0.136;2022-10-22T07:38:47;95720.16;;;27.17;30.44
70141;BME280;57508;43.086;0.136;2022-10-22T07:41:14;95722.09;;;27.77;30.00
70141;BME280;57508;43.086;0.136;2022-10-22T07:43:39;95729.78;;;27.86;30.58
70141;BME280;57508;43.086;0.136;2022-10-22T07:46:05;95720.22;;;28.20;29.75
70141;BME280;57508;43.086;0.136;2022-10-22T07:48:33;95722.53;;;28.18;30.01
70141;BME280;57508;43.086;0.136;2022-10-22T07:50:58;95729.28;;;28.79;29.54
70141;BME280;57508;43.086;0.136;2022-10-22T07:53:24;95722.00;;;29.35;27.77
70141;BME280;57508;43.086;0.136;2022-10-22T07:55:50;95738.97;;;29.98;27.15
70141;BME280;57508;43.086;0.136;2022-10-22T07:58:17;95738.28;;;30.38;26.72
70141;BME280;57508;43.086;0.136;2022-10-22T08:00:43;95741.13;;;30.54;26.46
70141;BME280;57508;43.086;0.136;2022-10-22T08:03:10;95745.47;;;30.92;26.91
70141;BME280;57508;43.086;0.136;2022-10-22T08:05:36;95747.38;;;31.33;25.72
70141;BME280;57508;43.086;0.136;2022-10-22T08:08:04;95744.88;;;31.42;24.13
70141;BME280;57508;43.086;0.136;2022-10-22T08:10:30;95743.38;;;31.00;24.54
70141;BME280;57508;43.086;0.136;2022-10-22T08:12:56;95747.34;;;31.53;25.65
70141;BME280;57508;43.086;0.136;2022-10-22T08:15:21;95745.81;;;31.68;25.41
70141;BME280;57508;43.086;0.136;2022-10-22T08:17:49;95750.00;;;31.90;25.25
70141;BME280;57508;43.086;0.136;2022-10-22T08:20:15;95749.03;;;32.30;24.08
70141;BME280;57508;43.086;0.136;2022-10-22T08:22:40;95749.19;;;32.69;24.26
70141;BME280;57508;43.086;0.136;2022-10-22T08:25:06;95745.59;;;32.72;23.92
70141;BME280;57508;43.086;0.136;2022-10-22T08:27:31;95745.63;;;32.26;24.33
70141;BME280;57508;43.086;0.136;2022-10-22T08:29:57;95741.91;;;31.86;25.35
70141;BME280;57508;43.086;0.136;2022-10-22T08:32:22;95749.41;;;31.28;25.40
70141;BME280;57508;43.086;0.136;2022-10-22T08:34:48;95746.47;;;30.38;26.58
70141;BME280;57508;43.086;0.136;2022-10-22T08:37:13;95743.56;;;30.49;26.08
70141;BME280;57508;43.086;0.136;2022-10-22T08:39:39;95743.78;;;30.99;25.50
70141;BME280;57508;43.086;0.136;2022-10-22T08:45:23;95748.03;;;32.07;24.79
70141;BME280;57508;43.086;0.136;2022-10-22T08:48:21;95747.28;;;32.95;23.38
70141;BME280;57508;43.086;0.136;2022-10-22T08:50:53;95740.25;;;33.11;22.91
70141;BME280;57508;43.086;0.136;2022-10-22T08:53:26;95746.16;;;32.80;24.13
70141;BME280;57508;43.086;0.136;2022-10-22T08:55:55;95740.44;;;32.44;23.90
70141;BME280;57508;43.086;0.136;2022-10-22T09:01:19;95730.69;;;32.14;24.36
70141;BME280;57508;43.086;0.136;2022-10-22T09:06:39;95727.13;;;31.67;25.50
70141;BME280;57508;43.086;0.136;2022-10-22T09:09:15;95735.97;;;31.54;25.59
70141;BME280;57508;43.086;0.136;2022-10-22T09:11:49;95732.66;;;30.89;26.99
70141;BME280;57508;43.086;0.136;2022-10-22T09:14:21;95721.59;;;31.17;26.29
70141;BME280;57508;43.086;0.136;2022-10-22T09:17:13;95723.19;;;31.35;26.50
70141;BME280;57508;43.086;0.136;2022-10-22T09:25:11;95714.91;;;32.51;26.63
70141;BME280;57508;43.086;0.136;2022-10-22T09:27:38;95716.38;;;33.38;24.90
70141;BME280;57508;43.086;0.136;2022-10-22T09:30:04;95719.47;;;33.66;23.38
70141;BME280;57508;43.086;0.136;2022-10-22T09:32:31;95707.47;;;34.79;23.85
70141;BME280;57508;43.086;0.136;2022-10-22T09:34:57;95714.44;;;35.75;22.01
70141;BME280;57508;43.086;0.136;2022-10-22T09:37:27;95708.66;;;35.82;20.48
70141;BME280;57508;43.086;0.136;2022-10-22T09:39:55;95713.59;;;36.25;20.29
70141;BME280;57508;43.086;0.136;2022-10-22T09:42:21;95715.94;;;36.98;19.58
70141;BME280;57508;43.086;0.136;2022-10-22T09:44:53;95698.56;;;36.73;20.28
70141;BME280;57508;43.086;0.136;2022-10-22T09:47:34;95692.78;;;37.82;18.64
70141;BME280;57508;43.086;0.136;2022-10-22T09:50:21;95700.91;;;38.80;17.37
70141;BME280;57508;43.086;0.136;2022-10-22T09:55:27;95698.47;;;39.33;18.66
70141;BME280;57508;43.086;0.136;2022-10-22T09:57:53;95697.03;;;38.47;16.57
70141;BME280;57508;43.086;0.136;2022-10-22T10:00:20;95701.25;;;38.87;17.20
70141;BME280;57508;43.086;0.136;2022-10-22T10:02:46;95691.19;;;39.92;16.52
70141;BME280;57508;43.086;0.136;2022-10-22T10:05:22;95694.16;;;40.30;15.72
70141;BME280;57508;43.086;0.136;2022-10-22T10:07:49;95686.59;;;40.84;14.78
70141;BME280;57508;43.086;0.136;2022-10-22T10:10:24;95689.84;;;41.47;15.04
70141;BME280;57508;43.086;0.136;2022-10-22T10:13:02;95684.75;;;41.39;14.32
70141;BME280;57508;43.086;0.136;2022-10-22T10:21:08;95688.84;;;41.50;15.11
70141;BME280;57508;43.086;0.136;2022-10-22T10:26:44;95682.81;;;42.07;13.35
70141;BME280;57508;43.086;0.136;2022-10-22T10:30:12;95677.81;;;42.28;13.13
70141;BME280;57508;43.086;0.136;2022-10-22T10:32:29;95677.97;;;41.96;15.14
70141;BME280;57508;43.086;0.136;2022-10-22T10:37:39;95674.56;;;42.35;13.57
70141;BME280;57508;43.086;0.136;2022-10-22T10:40:26;95671.06;;;42.75;13.61
70141;BME280;57508;43.086;0.136;2022-10-22T10:45:41;95670.31;;;42.63;13.85
70141;BME280;57508;43.086;0.136;2022-10-22T10:53:54;95667.25;;;43.24;12.41
70141;BME280;57508;43.086;0.136;2022-10-22T11:05:35;95654.41;;;42.98;13.10
70141;BME280;57508;43.086;0.136;2022-10-22T11:07:48;95642.59;;;43.74;13.22
70141;BME280;57508;43.086;0.136;2022-10-22T11:10:39;95643.97;;;44.51;12.28
70141;BME280;57508;43.086;0.136;2022-10-22T11:13:29;95632.25;;;44.59;11.37
70141;BME280;57508;43.086;0.136;2022-10-22T11:18:46;95616.19;;;43.98;11.91
70141;BME280;57508;43.086;0.136;2022-10-22T11:21:20;95616.56;;;44.55;11.02
70141;BME280;57508;43.086;0.136;2022-10-22T11:27:21;95603.13;;;44.60;12.47
70141;BME280;57508;43.086;0.136;2022-10-22T11:29:49;95598.63;;;44.51;12.54
70141;BME280;57508;43.086;0.136;2022-10-22T11:32:18;95593.97;;;43.92;11.53
70141;BME280;57508;43.086;0.136;2022-10-22T11:34:52;95596.28;;;43.82;12.35
70141;BME280;57508;43.086;0.136;2022-10-22T11:37:19;95591.38;;;44.42;11.19
70141;BME280;57508;43.086;0.136;2022-10-22T11:40:02;95581.09;;;45.37;11.05
70141;BME280;57508;43.086;0.136;2022-10-22T11:42:36;95584.06;;;44.95;11.92
70141;BME280;57508;43.086;0.136;2022-10-22T11:47:34;95580.13;;;44.53;10.24
70141;BME280;57508;43.086;0.136;2022-10-22T11:50:18;95567.06;;;44.42;11.85
70141;BME280;57508;43.086;0.136;2022-10-22T11:53:04;95560.00;;;44.05;11.89
70141;BME280;57508;43.086;0.136;2022-10-22T11:58:28;95557.06;;;45.53;10.56
70141;BME280;57508;43.086;0.136;2022-10-22T12:08:30;95544.22;;;44.13;11.58
70141;BME280;57508;43.086;0.136;2022-10-22T12:11:39;95532.47;;;45.32;11.82
70141;BME280;57508;43.086;0.136;2022-10-22T12:14:22;95524.66;;;46.81;10.21
70141;BME280;57508;43.086;0.136;2022-10-22T12:17:08;95531.78;;;46.36;10.76
70141;BME280;57508;43.086;0.136;2022-10-22T12:19:37;95529.91;;;45.34;10.18
70141;BME280;57508;43.086;0.136;2022-10-22T12:24:35;95523.13;;;45.68;10.64
70141;BME280;57508;43.086;0.136;2022-10-22T12:27:02;95521.78;;;44.06;11.65
70141;BME280;57508;43.086;0.136;2022-10-22T12:29:31;95510.84;;;44.75;12.22
70141;BME280;57508;43.086;0.136;2022-10-22T12:32:02;95503.56;;;46.80;9.97
70141;BME280;57508;43.086;0.136;2022-10-22T12:34:28;95497.13;;;46.85;10.33
70141;BME280;57508;43.086;0.136;2022-10-22T12:36:54;95486.47;;;46.70;9.96
70141;BME280;57508;43.086;0.136;2022-10-22T12:39:24;95484.44;;;47.11;9.88
70141;BME280;57508;43.086;0.136;2022-10-22T12:41:52;95478.59;;;47.92;9.23
70141;BME280;57508;43.086;0.136;2022-10-22T12:44:18;95480.75;;;47.86;9.88
70141;BME280;57508;43.086;0.136;2022-10-22T12:46:47;95484.66;;;48.26;9.59
70141;BME280;57508;43.086;0.136;2022-10-22T12:49:19;95474.31;;;47.91;10.25
70141;BME280;57508;43.086;0.136;2022-10-22T12:51:46;95477.84;;;47.92;8.60
70141;BME280;57508;43.086;0.136;2022-10-22T12:54:31;95473.81;;;46.09;10.42
70141;BME280;57508;43.086;0.136;2022-10-22T12:56:58;95487.59;;;46.21;10.03
70141;BME280;57508;43.086;0.136;2022-10-22T12:59:26;95475.19;;;46.35;10.49
70141;BME280;57508;43.086;0.136;2022-10-22T13:01:54;95460.72;;;46.04;10.81
70141;BME280;57508;43.086;0.136;2022-10-22T13:09:38;95444.59;;;47.88;9.34
70141;BME280;57508;43.086;0.136;2022-10-22T13:12:05;95451.03;;;48.84;9.48
70141;BME280;57508;43.086;0.136;2022-10-22T13:14:33;95447.53;;;48.91;9.19
70141;BME280;57508;43.086;0.136;2022-10-22T13:17:07;95441.25;;;49.06;8.40
70141;BME280;57508;43.086;0.136;2022-10-22T13:22:35;95439.38;;;49.77;8.78
70141;BME280;57508;43.086;0.136;2022-10-22T13:27:45;95440.66;;;48.63;8.95
70141;BME280;57508;43.086;0.136;2022-10-22T13:30:29;95429.59;;;49.55;8.56
70141;BME280;57508;43.086;0.136;2022-10-22T13:35:41;95427.78;;;49.05;8.16
70141;BME280;57508;43.086;0.136;2022-10-22T13:38:18;95430.16;;;48.56;9.31
70141;BME280;57508;43.086;0.136;2022-10-22T13:40:46;95423.00;;;48.47;8.72
70141;BME280;57508;43.086;0.136;2022-10-22T13:43:14;95422.28;;;48.54;8.65
70141;BME280;57508;43.086;0.136;2022-10-22T13:45:40;95415.13;;;47.31;9.89
70141;BME280;57508;43.086;0.136;2022-10-22T13:48:12;95409.16;;;47.91;9.32
70141;BME280;57508;43.086;0.136;2022-10-22T13:50:39;95412.13;;;48.43;8.90
70141;BME280;57508;43.086;0.136;2022-10-22T13:53:04;95405.59;;;48.78;9.52
70141;BME280;57508;43.086;0.136;2022-10-22T13:55:30;95404.38;;;48.57;9.70
70141;BME280;57508;43.086;0.136;2022-10-22T13:58:09;95404.56;;;48.60;9.61
70141;BME280;57508;43.086;0.136;2022-10-22T14:00:41;95396.41;;;49.14;9.59
70141;BME280;57508;43.086;0.136;2022-10-22T14:03:10;95392.97;;;48.55;8.96
70141;BME280;57508;43.086;0.136;2022-10-22T14:05:36;95387.69;;;48.44;10.16
70141;BME280;57508;43.086;0.136;2022-10-22T14:08:02;95374.63;;;46.62;11.00
70141;BME280;57508;43.086;0.136;2022-10-22T14:10:28;95372.81;;;45.97;10.94
70141;BME280;57508;43.086;0.136;2022-10-22T14:12:53;95369.25;;;46.10;9.92
70141;BME280;57508;43.086;0.136;2022-10-22T14:15:23;95368.91;;;45.21;10.10
70141;BME280;57508;43.086;0.136;2022-10-22T14:17:56;95373.91;;;45.42;12.15
70141;BME280;57508;43.086;0.136;2022-10-22T14:20:24;95354.75;;;46.52;11.24
70141;BME280;57508;43.086;0.136;2022-10-22T14:22:51;95354.59;;;46.99;10.91
70141;BME280;57508;43.086;0.136;2022-10-22T14:25:21;95358.09;;;46.10;11.09
70141;BME280;57508;43.086;0.136;2022-10-22T14:27:47;95351.50;;;45.48;11.22
70141;BME280;57508;43.086;0.136;2022-10-22T14:30:17;95340.28;;;46.13;11.21
70141;BME280;57508;43.086;0.136;2022-10-22T14:32:43;95345.75;;;45.59;11.06
70141;BME280;57508;43.086;0.136;2022-10-22T14:35:13;95352.50;;;44.79;11.84
70141;BME280;57508;43.086;0.136;2022-10-22T14:37:39;95348.78;;;43.71;12.70
70141;BME280;57508;43.086;0.136;2022-10-22T14:40:05;95345.41;;;43.53;14.00
70141;BME280;57508;43.086;0.136;2022-10-22T14:42:33;95350.09;;;44.20;12.63
70141;BME280;57508;43.086;0.136;2022-10-22T14:45:03;95359.00;;;43.87;13.35
70141;BME280;57508;43.086;0.136;2022-10-22T14:47:28;95358.59;;;42.51;13.96
70141;BME280;57508;43.086;0.136;2022-10-22T14:49:54;95362.75;;;41.47;15.60
70141;BME280;57508;43.086;0.136;2022-10-22T14:52:19;95365.28;;;41.85;14.89
70141;BME280;57508;43.086;0.136;2022-10-22T14:54:45;95362.72;;;41.30;15.34
70141;BME280;57508;43.086;0.136;2022-10-22T14:57:12;95372.66;;;40.81;15.49
70141;BME280;57508;43.086;0.136;2022-10-22T14:59:38;95367.56;;;40.19;16.98
70141;BME280;57508;43.086;0.136;2022-10-22T15:02:04;95368.75;;;39.42;16.71
70141;BME280;57508;43.086;0.136;2022-10-22T15:04:29;95369.06;;;38.75;18.01
70141;BME280;57508;43.086;0.136;2022-10-22T15:06:55;95367.41;;;38.27;18.00
70141;BME280;57508;43.086;0.136;2022-10-22T15:09:22;95364.66;;;37.46;19.30
70141;BME280;57508;43.086;0.136;2022-10-22T15:11:48;95368.47;;;36.94;19.54
70141;BME280;57508;43.086;0.136;2022-10-22T15:14:13;95377.50;;;36.45;20.50
70141;BME280;57508;43.086;0.136;2022-10-22T15:16:39;95375.69;;;36.08;20.59
70141;BME280;57508;43.086;0.136;2022-10-22T15:19:05;95367.22;;;35.88;21.50
70141;BME280;57508;43.086;0.136;2022-10-22T15:21:30;95373.06;;;35.71;22.40
70141;BME280;57508;43.086;0.136;2022-10-22T15:23:56;95366.75;;;34.99;22.14
70141;BME280;57508;43.086;0.136;2022-10-22T15:26:21;95372.19;;;34.52;22.86
70141;BME280;57508;43.086;0.136;2022-10-22T15:28:47;95378.25;;;34.38;23.71
70141;BME280;57508;43.086;0.136;2022-10-22T15:31:13;95390.00;;;34.06;23.51
70141;BME280;57508;43.086;0.136;2022-10-22T15:33:40;95389.94;;;33.88;23.87
70141;BME280;57508;43.086;0.136;2022-10-22T15:36:10;95382.09;;;33.67;24.16
70141;BME280;57508;43.086;0.136;2022-10-22T15:38:36;95383.22;;;33.35;25.18
70141;BME280;57508;43.086;0.136;2022-10-22T15:41:06;95384.66;;;33.49;25.32
70141;BME280;57508;43.086;0.136;2022-10-22T15:43:33;95380.66;;;33.18;25.42
70141;BME280;57508;43.086;0.136;2022-10-22T15:46:14;95393.66;;;33.04;26.36
70141;BME280;57508;43.086;0.136;2022-10-22T15:48:41;95390.56;;;32.67;26.14
70141;BME280;57508;43.086;0.136;2022-10-22T15:51:14;95388.63;;;32.41;26.71
70141;BME280;57508;43.086;0.136;2022-10-22T15:53:40;95386.31;;;32.66;26.06
70141;BME280;57508;43.086;0.136;2022-10-22T15:56:06;95387.53;;;32.39;26.80
70141;BME280;57508;43.086;0.136;2022-10-22T15:58:32;95394.91;;;31.60;28.51
70141;BME280;57508;43.086;0.136;2022-10-22T16:01:08;95394.63;;;31.84;28.38
70141;BME280;57508;43.086;0.136;2022-10-22T16:03:34;95384.25;;;31.79;28.06
70141;BME280;57508;43.086;0.136;2022-10-22T16:05:59;95382.56;;;31.55;28.14
70141;BME280;57508;43.086;0.136;2022-10-22T16:08:25;95392.81;;;31.51;28.95
70141;BME280;57508;43.086;0.136;2022-10-22T16:10:51;95405.19;;;31.56;29.31
70141;BME280;57508;43.086;0.136;2022-10-22T16:13:18;95403.06;;;31.47;28.11
70141;BME280;57508;43.086;0.136;2022-10-22T16:15:45;95394.06;;;31.04;28.48
70141;BME280;57508;43.086;0.136;2022-10-22T16:18:10;95403.38;;;31.06;28.96
70141;BME280;57508;43.086;0.136;2022-10-22T16:20:39;95400.28;;;31.04;28.19
70141;BME280;57508;43.086;0.136;2022-10-22T16:23:04;95402.00;;;30.98;29.25
70141;BME280;57508;43.086;0.136;2022-10-22T16:25:30;95401.81;;;30.76;29.14
70141;BME280;57508;43.086;0.136;2022-10-22T16:27:55;95408.00;;;30.26;30.28
70141;BME280;57508;43.086;0.136;2022-10-22T16:30:20;95411.91;;;30.25;29.74
70141;BME280;57508;43.086;0.136;2022-10-22T16:32:46;95409.72;;;30.00;30.05
70141;BME280;57508;43.086;0.136;2022-10-22T16:35:11;95408.75;;;29.90;30.53
70141;BME280;57508;43.086;0.136;2022-10-22T16:37:37;95407.72;;;29.84;30.33
70141;BME280;57508;43.086;0.136;2022-10-22T16:40:03;95407.38;;;29.21;30.87
70141;BME280;57508;43.086;0.136;2022-10-22T16:42:29;95394.06;;;29.67;29.98
70141;BME280;57508;43.086;0.136;2022-10-22T16:44:54;95398.25;;;29.51;29.91
70141;BME280;57508;43.086;0.136;2022-10-22T16:47:19;95404.94;;;29.26;30.75
70141;BME280;57508;43.086;0.136;2022-10-22T16:49:45;95406.97;;;28.74;31.85
70141;BME280;57508;43.086;0.136;2022-10-22T16:52:10;95408.63;;;28.92;31.89
70141;BME280;57508;43.086;0.136;2022-10-22T16:54:36;95410.22;;;28.93;31.76
70141;BME280;57508;43.086;0.136;2022-10-22T16:57:01;95401.66;;;27.88;33.28
70141;BME280;57508;43.086;0.136;2022-10-22T16:59:26;95407.38;;;28.21;32.27
70141;BME280;57508;43.086;0.136;2022-10-22T17:01:52;95407.22;;;28.36;32.09
70141;BME280;57508;43.086;0.136;2022-10-22T17:04:18;95397.81;;;28.40;32.01
70141;BME280;57508;43.086;0.136;2022-10-22T17:06:44;95393.97;;;28.38;31.81
70141;BME280;57508;43.086;0.136;2022-10-22T17:09:09;95392.94;;;28.28;31.93
70141;BME280;57508;43.086;0.136;2022-10-22T17:11:36;95390.25;;;28.00;33.49
70141;BME280;57508;43.086;0.136;2022-10-22T17:14:02;95396.56;;;27.59;33.64
70141;BME280;57508;43.086;0.136;2022-10-22T17:16:28;95386.25;;;27.81;33.17
70141;BME280;57508;43.086;0.136;2022-10-22T17:18:54;95388.31;;;27.70;33.42
70141;BME280;57508;43.086;0.136;2022-10-22T17:21:20;95388.00;;;27.64;33.09
70141;BME280;57508;43.086;0.136;2022-10-22T17:23:47;95385.00;;;27.55;33.30
70141;BME280;57508;43.086;0.136;2022-10-22T17:26:15;95385.38;;;27.18;33.96
70141;BME280;57508;43.086;0.136;2022-10-22T17:28:41;95379.13;;;27.25;33.83
70141;BME280;57508;43.086;0.136;2022-10-22T17:31:19;95380.16;;;26.54;34.89
70141;BME280;57508;43.086;0.136;2022-10-22T17:33:46;95389.34;;;27.13;34.08
70141;BME280;57508;43.086;0.136;2022-10-22T17:36:12;95379.53;;;27.23;33.17
70141;BME280;57508;43.086;0.136;2022-10-22T17:38:39;95378.44;;;27.17;33.33
70141;BME280;57508;43.086;0.136;2022-10-22T17:41:07;95379.25;;;26.68;34.71
70141;BME280;57508;43.086;0.136;2022-10-22T17:43:34;95387.34;;;26.30;34.93
70141;BME280;57508;43.086;0.136;2022-10-22T17:46:10;95383.88;;;26.75;34.46
70141;BME280;57508;43.086;0.136;2022-10-22T17:48:38;95380.22;;;26.89;33.90
70141;BME280;57508;43.086;0.136;2022-10-22T17:51:08;95381.75;;;26.97;33.94
70141;BME280;57508;43.086;0.136;2022-10-22T17:53:34;95394.81;;;26.60;33.71
70141;BME280;57508;43.086;0.136;2022-10-22T17:56:01;95399.69;;;26.80;33.25
70141;BME280;57508;43.086;0.136;2022-10-22T17:58:29;95405.00;;;26.45;34.13
70141;BME280;57508;43.086;0.136;2022-10-22T18:00:56;95407.59;;;26.60;34.29
70141;BME280;57508;43.086;0.136;2022-10-22T18:03:21;95414.88;;;26.70;34.07
70141;BME280;57508;43.086;0.136;2022-10-22T18:05:47;95412.75;;;26.89;33.56
70141;BME280;57508;43.086;0.136;2022-10-22T18:08:13;95411.38;;;26.73;33.84
70141;BME280;57508;43.086;0.136;2022-10-22T18:10:39;95412.41;;;26.87;33.24
70141;BME280;57508;43.086;0.136;2022-10-22T18:13:05;95409.78;;;26.76;34.16
70141;BME280;57508;43.086;0.136;2022-10-22T18:15:30;95408.56;;;26.31;35.02
70141;BME280;57508;43.086;0.136;2022-10-22T18:17:58;95400.22;;;26.04;35.12
70141;BME280;57508;43.086;0.136;2022-10-22T18:20:23;95398.50;;;26.35;34.63
70141;BME280;57508;43.086;0.136;2022-10-22T18:22:49;95395.25;;;26.55;34.09
70141;BME280;57508;43.086;0.136;2022-10-22T18:25:14;95400.94;;;26.68;34.43
70141;BME280;57508;43.086;0.136;2022-10-22T18:27:40;95388.00;;;26.41;34.08
70141;BME280;57508;43.086;0.136;2022-10-22T18:30:06;95397.81;;;26.20;35.11
70141;BME280;57508;43.086;0.136;2022-10-22T18:32:32;95403.28;;;26.09;35.20
70141;BME280;57508;43.086;0.136;2022-10-22T18:34:58;95394.75;;;26.11;34.67
70141;BME280;57508;43.086;0.136;2022-10-22T18:37:24;95391.69;;;26.05;34.85
70141;BME280;57508;43.086;0.136;2022-10-22T18:39:49;95387.69;;;26.28;34.27
70141;BME280;57508;43.086;0.136;2022-10-22T18:42:15;95396.13;;;26.41;33.84
70141;BME280;57508;43.086;0.136;2022-10-22T18:44:40;95387.63;;;26.39;34.04
70141;BME280;57508;43.086;0.136;2022-10-22T18:47:05;95397.00;;;26.31;33.91
70141;BME280;57508;43.086;0.136;2022-10-22T18:49:32;95397.41;;;26.22;32.90
70141;BME280;57508;43.086;0.136;2022-10-22T18:51:58;95392.56;;;25.91;33.35
70141;BME280;57508;43.086;0.136;2022-10-22T18:54:23;95376.38;;;25.84;33.80
70141;BME280;57508;43.086;0.136;2022-10-22T18:56:49;95375.59;;;25.80;34.07
70141;BME280;57508;43.086;0.136;2022-10-22T18:59:21;95366.47;;;26.19;34.35
70141;BME280;57508;43.086;0.136;2022-10-22T19:01:47;95364.50;;;26.23;34.07
70141;BME280;57508;43.086;0.136;2022-10-22T19:04:13;95376.28;;;25.98;34.51
70141;BME280;57508;43.086;0.136;2022-10-22T19:06:39;95369.34;;;25.90;34.14
70141;BME280;57508;43.086;0.136;2022-10-22T19:09:05;95360.78;;;25.99;33.53
70141;BME280;57508;43.086;0.136;2022-10-22T19:11:33;95346.47;;;26.06;33.84
70141;BME280;57508;43.086;0.136;2022-10-22T19:13:59;95363.22;;;25.82;34.65
70141;BME280;57508;43.086;0.136;2022-10-22T19:16:24;95354.13;;;25.36;34.52
70141;BME280;57508;43.086;0.136;2022-10-22T19:19:02;95338.53;;;25.77;34.05
70141;BME280;57508;43.086;0.136;2022-10-22T19:21:29;95344.72;;;25.73;33.41
70141;BME280;57508;43.086;0.136;2022-10-22T19:23:58;95347.88;;;25.61;32.52
70141;BME280;57508;43.086;0.136;2022-10-22T19:26:24;95344.72;;;25.70;32.54
70141;BME280;57508;43.086;0.136;2022-10-22T19:28:56;95320.63;;;25.90;31.86
70141;BME280;57508;43.086;0.136;2022-10-22T19:31:23;95316.69;;;26.06;32.10
70141;BME280;57508;43.086;0.136;2022-10-22T19:33:50;95328.63;;;26.08;32.30
70141;BME280;57508;43.086;0.136;2022-10-22T19:36:17;95315.44;;;26.14;31.69
70141;BME280;57508;43.086;0.136;2022-10-22T19:38:46;95315.38;;;26.25;31.64
70141;BME280;57508;43.086;0.136;2022-10-22T19:41:13;95314.28;;;26.15;31.34
70141;BME280;57508;43.086;0.136;2022-10-22T19:43:43;95309.97;;;26.21;31.44
70141;BME280;57508;43.086;0.136;2022-10-22T19:46:09;95296.47;;;25.54;33.46
70141;BME280;57508;43.086;0.136;2022-10-22T19:48:35;95286.00;;;25.67;34.13
70141;BME280;57508;43.086;0.136;2022-10-22T19:51:03;95301.44;;;25.70;33.81
70141;BME280;57508;43.086;0.136;2022-10-22T19:53:30;95303.06;;;25.60;32.60
70141;BME280;57508;43.086;0.136;2022-10-22T19:55:57;95289.88;;;25.69;32.41
70141;BME280;57508;43.086;0.136;2022-10-22T19:58:22;95309.72;;;26.05;31.91
70141;BME280;57508;43.086;0.136;2022-10-22T20:00:48;95295.75;;;25.49;33.16
70141;BME280;57508;43.086;0.136;2022-10-22T20:03:13;95295.41;;;26.04;31.64
70141;BME280;57508;43.086;0.136;2022-10-22T20:05:40;95306.19;;;26.08;32.21
70141;BME280;57508;43.086;0.136;2022-10-22T20:08:07;95295.63;;;25.75;33.00
70141;BME280;57508;43.086;0.136;2022-10-22T20:10:33;95274.06;;;25.60;32.96
70141;BME280;57508;43.086;0.136;2022-10-22T20:12:58;95255.69;;;25.90;32.04
70141;BME280;57508;43.086;0.136;2022-10-22T20:15:24;95254.72;;;25.62;34.13
70141;BME280;57508;43.086;0.136;2022-10-22T20:17:49;95263.66;;;25.48;34.07
70141;BME280;57508;43.086;0.136;2022-10-22T20:20:14;95272.66;;;25.34;33.43
70141;BME280;57508;43.086;0.136;2022-10-22T20:22:40;95260.75;;;25.17;31.96
70141;BME280;57508;43.086;0.136;2022-10-22T20:25:08;95275.53;;;24.76;34.11
70141;BME280;57508;43.086;0.136;2022-10-22T20:27:33;95285.31;;;25.52;32.79
70141;BME280;57508;43.086;0.136;2022-10-22T20:29:58;95270.72;;;25.95;32.28
